createdAt,value
2022-11-06T00:04:43.992Z,101327.16
2022-11-06T00:09:47.645Z,101321.81
2022-11-06T00:14:52.697Z,101306.50
2022-11-06T00:19:56.401Z,101301.34
2022-11-06T00:25:00.130Z,101299.84
2022-11-06T00:30:06.095Z,101295.03
2022-11-06T00:35:09.953Z,101285.09
2022-11-06T00:40:14.807Z,101286.59
2022-11-06T00:45:19.809Z,101298.59
2022-11-06T00:50:26.413Z,101291.59
2022-11-06T00:55:30.245Z,101294.97
2022-11-06T01:00:35.301Z,101286.31
2022-11-06T01:05:39.066Z,101288.72
2022-11-06T01:10:42.710Z,101284.72
2022-11-06T01:15:47.726Z,101272.09
2022-11-06T01:20:51.424Z,101259.12
2022-11-06T01:25:59.161Z,101263.47
2022-11-06T01:31:05.634Z,101269.22
2022-11-06T01:36:10.753Z,101264.16
2022-11-06T01:41:15.654Z,101271.09
2022-11-06T01:46:22.857Z,101263.53
2022-11-06T01:51:29.170Z,101272.06
2022-11-06T01:56:33.257Z,101267.09
2022-11-06T02:01:38.624Z,101262.00
2022-11-06T02:06:42.641Z,101250.09
2022-11-06T02:11:52.139Z,101246.63
2022-11-06T02:17:09.802Z,101231.03
2022-11-06T02:22:34.516Z,101218.34
2022-11-06T02:27:42.493Z,101214.13
2022-11-06T02:32:52.068Z,101220.97
2022-11-06T02:37:59.749Z,101205.50
2022-11-06T02:43:08.999Z,101208.88
2022-11-06T02:48:15.742Z,101207.59
2022-11-06T02:53:23.930Z,101195.78
2022-11-06T02:58:32.720Z,101202.59
2022-11-06T03:03:41.488Z,101218.56
2022-11-06T03:08:50.448Z,101213.16
2022-11-06T03:13:59.405Z,101211.72
2022-11-06T03:19:08.936Z,101204.03
2022-11-06T03:24:18.105Z,101176.78
2022-11-06T03:29:29.529Z,101171.38
2022-11-06T03:34:40.718Z,101172.69
2022-11-06T03:39:49.750Z,101166.19
2022-11-06T03:44:59.337Z,101153.56
2022-11-06T03:50:07.873Z,101142.28
2022-11-06T03:55:15.932Z,101129.22
2022-11-06T04:00:21.466Z,101136.97
2022-11-06T04:05:25.857Z,101136.00
2022-11-06T04:10:49.402Z,101139.53
2022-11-06T04:15:55.150Z,101130.03
2022-11-06T04:21:24.942Z,101118.75
2022-11-06T04:26:36.996Z,101117.19
2022-11-06T04:31:48.648Z,101109.88
2022-11-06T04:37:01.148Z,101096.06
2022-11-06T04:42:12.387Z,101094.87
2022-11-06T04:47:20.230Z,101099.06
2022-11-06T04:52:27.324Z,101107.44
2022-11-06T04:57:30.966Z,101092.56
2022-11-06T05:02:35.997Z,101086.22
2022-11-06T05:07:39.982Z,101074.69
2022-11-06T05:12:43.762Z,101070.56
2022-11-06T05:17:48.827Z,101058.22
2022-11-06T05:23:01.601Z,101066.78
2022-11-06T05:28:08.096Z,101067.31
2022-11-06T05:33:13.103Z,101063.72
2022-11-06T05:38:16.901Z,101060.97
2022-11-06T05:43:20.644Z,101055.00
2022-11-06T05:48:25.606Z,101047.34
2022-11-06T05:53:29.322Z,101036.13
2022-11-06T05:58:33.485Z,101031.31
2022-11-06T06:03:38.616Z,101029.59
2022-11-06T06:08:42.341Z,101028.56
2022-11-06T06:13:46.117Z,101042.97
2022-11-06T06:18:51.796Z,101027.44
2022-11-06T06:23:55.587Z,101025.50
2022-11-06T06:28:59.510Z,101029.06
2022-11-06T06:34:04.536Z,101039.53
2022-11-06T06:39:08.387Z,101028.31
2022-11-06T06:44:12.159Z,101029.84
2022-11-06T06:49:17.214Z,101024.94
2022-11-06T06:54:20.951Z,101008.56
2022-11-06T06:59:24.654Z,101019.06
2022-11-06T07:04:29.696Z,101008.00
2022-11-06T07:09:33.624Z,101003.72
2022-11-06T07:14:37.365Z,101004.06
2022-11-06T07:19:42.448Z,101008.47
2022-11-06T07:24:46.164Z,100995.66
2022-11-06T07:29:49.980Z,100999.37
2022-11-06T07:34:55.063Z,101001.22
2022-11-06T07:39:58.759Z,100985.87
2022-11-06T07:45:02.622Z,100989.50
2022-11-06T07:50:08.634Z,100979.63
2022-11-06T07:55:12.450Z,100958.63
2022-11-06T08:00:16.675Z,100963.47
2022-11-06T08:05:21.924Z,100972.69
2022-11-06T08:10:25.559Z,100961.94
2022-11-06T08:15:29.465Z,100958.81
2022-11-06T08:20:34.806Z,100953.91
2022-11-06T08:25:39.120Z,100949.03
2022-11-06T08:30:42.817Z,100946.06
2022-11-06T08:35:48.353Z,100938.22
2022-11-06T08:40:53.753Z,100922.25
2022-11-06T08:45:57.677Z,100935.75
2022-11-06T08:51:03.003Z,100908.69
2022-11-06T08:56:07.454Z,100911.19
2022-11-06T09:01:11.669Z,100908.25
2022-11-06T09:06:16.727Z,100902.84
2022-11-06T09:11:20.613Z,100873.09
2022-11-06T09:16:26.261Z,100867.94
2022-11-06T09:21:31.319Z,100867.31
2022-11-06T09:26:35.066Z,100863.00
2022-11-06T09:31:38.757Z,100856.59
2022-11-06T09:36:43.804Z,100853.06
2022-11-06T09:41:58.174Z,100858.50
2022-11-06T09:47:05.424Z,100856.75
2022-11-06T09:52:18.918Z,100854.72
2022-11-06T09:57:29.478Z,100859.44
2022-11-06T10:02:39.098Z,100855.50
2022-11-06T10:07:46.777Z,100843.72
2022-11-06T10:13:05.814Z,100828.66
2022-11-06T10:18:18.697Z,100823.87
2022-11-06T10:23:31.278Z,100821.84
2022-11-06T10:28:54.181Z,100815.94
2022-11-06T10:34:03.647Z,100814.72
2022-11-06T10:39:16.623Z,100805.12
2022-11-06T10:44:25.357Z,100811.62
2022-11-06T10:49:37.140Z,100798.28
2022-11-06T10:54:56.382Z,100790.03
2022-11-06T11:00:00.264Z,100762.13
2022-11-06T11:05:11.515Z,100769.41
2022-11-06T11:10:31.308Z,100760.59
2022-11-06T11:15:44.594Z,100756.59
2022-11-06T11:20:49.613Z,100752.97
2022-11-06T11:25:56.986Z,100756.75
2022-11-06T11:31:07.441Z,100742.81
2022-11-06T11:36:11.448Z,100728.63
2022-11-06T11:41:25.147Z,100725.56
2022-11-06T11:46:28.875Z,100709.41
2022-11-06T11:51:36.510Z,100720.62
2022-11-06T11:57:04.109Z,100709.62
2022-11-06T12:02:20.859Z,100699.16
2022-11-06T12:07:30.366Z,100667.09
2022-11-06T12:12:37.012Z,100664.19
2022-11-06T12:17:42.486Z,100666.78
2022-11-06T12:22:49.501Z,100659.38
2022-11-06T12:27:59.236Z,100644.91
2022-11-06T12:33:11.443Z,100640.50
2022-11-06T12:38:25.441Z,100634.63
2022-11-06T12:43:38.497Z,100630.03
2022-11-06T12:49:00.562Z,100640.56
2022-11-06T12:54:16.516Z,100628.06
2022-11-06T12:59:38.271Z,100619.87
2022-11-06T13:04:56.375Z,100635.22
2022-11-06T13:10:12.505Z,100637.00
2022-11-06T13:15:28.288Z,100636.91
2022-11-06T13:20:41.290Z,100638.34
2022-11-06T13:25:51.800Z,100626.66
2022-11-06T13:30:58.882Z,100621.28
2022-11-06T13:36:03.523Z,100617.78
2022-11-06T13:41:13.730Z,100622.00
2022-11-06T13:46:28.899Z,100615.06
2022-11-06T13:51:43.815Z,100623.25
2022-11-06T13:57:13.775Z,100613.97
2022-11-06T14:02:38.101Z,100618.00
2022-11-06T14:07:43.587Z,100606.72
2022-11-06T14:12:48.455Z,100605.00
2022-11-06T14:17:58.004Z,100618.56
2022-11-06T14:23:46.361Z,100616.25
2022-11-06T14:28:50.168Z,100604.91
2022-11-06T14:34:03.398Z,100592.84
2022-11-06T14:39:11.974Z,100577.56
2022-11-06T14:44:44.822Z,100566.19
2022-11-06T14:49:54.134Z,100563.03
2022-11-06T14:55:05.225Z,100558.81
2022-11-06T15:00:15.177Z,100552.28
2022-11-06T15:05:21.247Z,100543.78
2022-11-06T15:10:54.655Z,100540.88
2022-11-06T15:16:04.481Z,100529.81
2022-11-06T15:21:17.329Z,100507.97
2022-11-06T15:26:26.451Z,100508.63
2022-11-06T15:31:31.990Z,100506.81
2022-11-06T15:36:41.481Z,100501.97
2022-11-06T15:41:45.520Z,100493.88
2022-11-06T15:46:56.616Z,100492.31
2022-11-06T15:52:03.299Z,100481.44
2022-11-06T15:57:16.833Z,100469.75
2022-11-06T16:02:23.303Z,100446.69
2022-11-06T16:07:29.363Z,100439.94
2022-11-06T16:12:33.241Z,100429.63
2022-11-06T16:17:36.977Z,100417.22
2022-11-06T16:22:42.487Z,100420.47
2022-11-06T16:27:46.270Z,100409.19
2022-11-06T16:32:50.358Z,100408.19
2022-11-06T16:38:12.654Z,100402.72
2022-11-06T16:43:21.933Z,100400.03
2022-11-06T16:48:32.262Z,100390.31
2022-11-06T16:53:51.092Z,100397.00
2022-11-06T16:58:59.290Z,100409.78
2022-11-06T17:04:04.006Z,100421.44
2022-11-06T17:09:28.831Z,100407.16
2022-11-06T17:14:33.049Z,100406.72
2022-11-06T17:19:36.790Z,100421.75
2022-11-06T17:24:41.798Z,100413.34
2022-11-06T17:29:45.496Z,100418.47
2022-11-06T17:34:49.225Z,100412.59
2022-11-06T17:39:54.331Z,100425.25
2022-11-06T17:44:58.171Z,100422.84
2022-11-06T17:50:01.968Z,100417.59
2022-11-06T17:55:07.734Z,100416.94
2022-11-06T18:00:12.868Z,100432.47
2022-11-06T18:05:18.630Z,100419.56
2022-11-06T18:10:27.557Z,100424.22
2022-11-06T18:15:34.436Z,100394.22
2022-11-06T18:20:38.136Z,100392.38
2022-11-06T18:25:43.577Z,100404.56
2022-11-06T18:30:48.938Z,100410.25
2022-11-06T18:35:53.129Z,100409.06
2022-11-06T18:40:58.236Z,100409.72
2022-11-06T18:46:04.926Z,100401.75
2022-11-06T18:51:09.778Z,100405.66
2022-11-06T18:56:16.836Z,100417.69
2022-11-06T19:01:21.414Z,100406.87
2022-11-06T19:06:25.328Z,100413.06
2022-11-06T19:11:30.995Z,100409.78
2022-11-06T19:16:34.874Z,100426.53
2022-11-06T19:21:40.492Z,100423.34
2022-11-06T19:26:45.639Z,100425.16
2022-11-06T19:31:49.508Z,100429.91
2022-11-06T19:36:54.301Z,100427.81
2022-11-06T19:42:01.150Z,100434.72
2022-11-06T19:47:05.095Z,100429.03
2022-11-06T19:52:42.786Z,100433.31
2022-11-06T19:57:34.296Z,100447.28
2022-11-06T20:02:38.055Z,100454.47
2022-11-06T20:07:42.541Z,100461.53
2022-11-06T20:12:47.708Z,100452.22
2022-11-06T20:17:51.719Z,100482.62
2022-11-06T20:22:55.550Z,100466.69
2022-11-06T20:28:00.653Z,100466.12
2022-11-06T20:33:04.542Z,100475.81
2022-11-06T20:38:08.782Z,100480.47
2022-11-06T20:43:14.126Z,100473.97
2022-11-06T20:48:18.024Z,100474.94
2022-11-06T20:53:21.974Z,100483.72
2022-11-06T20:58:27.802Z,100485.44
2022-11-06T21:03:31.956Z,100491.66
2022-11-06T21:08:38.084Z,100500.31
2022-11-06T21:13:43.574Z,100504.00
2022-11-06T21:18:48.454Z,100511.81
2022-11-06T21:23:53.215Z,100511.91
2022-11-06T21:28:58.312Z,100515.44
2022-11-06T21:34:03.391Z,100533.34
2022-11-06T21:39:09.214Z,100534.03
2022-11-06T21:44:16.666Z,100546.31
2022-11-06T21:49:20.513Z,100553.81
2022-11-06T21:54:41.311Z,100554.78
2022-11-06T21:59:46.315Z,100557.44
2022-11-06T22:04:49.991Z,100549.72
2022-11-06T22:09:53.715Z,100545.28
2022-11-06T22:14:58.818Z,100555.59
2022-11-06T22:20:03.296Z,100566.69
2022-11-06T22:25:07.747Z,100554.66
2022-11-06T22:30:14.051Z,100552.13
2022-11-06T22:35:18.030Z,100560.97
2022-11-06T22:40:21.934Z,100566.56
2022-11-06T22:45:26.971Z,100564.09
2022-11-06T22:50:30.716Z,100554.97
2022-11-06T22:55:35.057Z,100571.47
2022-11-06T23:00:40.161Z,100571.84
2022-11-06T23:05:43.912Z,100589.22
2022-11-06T23:10:47.933Z,100578.19
2022-11-06T23:16:02.810Z,100586.00
2022-11-06T23:21:13.218Z,100595.47
2022-11-06T23:26:18.759Z,100588.06
2022-11-06T23:31:24.051Z,100587.38
2022-11-06T23:36:27.738Z,100588.06
2022-11-06T23:41:46.728Z,100588.00
2022-11-06T23:46:52.852Z,100600.69
2022-11-06T23:51:56.590Z,100616.06
2022-11-06T23:57:00.485Z,100611.97
